Leavenworth, IN (47137)

2:14 AM EDT on July 27, 2016 (GMT -0400)
k9set Harrison county skywarn | | Change Station

Elev 649 ft 38.21 °N, 86.11 °W | Updated 22 seconds ago

Clear
Clear
73.6 °F
Feels Like 73.6 °F
N
0.0
Wind Variable Wind from SE
Gusts 0.0 mph

Today
High -- | Low -- °F
--% Chance of Precip.
Yesterday
High -- | Low -- °F
Precip. -- in
Pressure 29.97 in
Visibility 9.0 miles
Clouds Clear
Dew Point 73 °F
Humidity 97%
Rainfall 0.00 in
Snow Depth Not available.
6:44 AM 8:59 PM
Waning Gibbous, 46% visible
METAR KFTK 270558Z AUTO 00000KT 9SM R18/5500FT CLR 23/22 A2998 RMK AO2 SLP147 T02310224 10271 20231 58005
Pressure 29.97 in
Visibility 9.0 miles
Clouds Clear
Dew Point 73 °F
Humidity 97%
Rainfall 0.00 in
Snow Depth Not available.
6:44 AM 8:59 PM
Waning Gibbous, 46% visible
METAR KFTK 270558Z AUTO 00000KT 9SM R18/5500FT CLR 23/22 A2998 RMK AO2 SLP147 T02310224 10271 20231 58005

10-Day Weather Forecast

Almanac

Astronomy

Jul. 27, 2016 Rise Set
Actual Time
Civil Twilight
Nautical Twilight
Astronomical Twilight
Moon
Length of Visible Light
Length of Day
Tomorrow will be .
, % of the Moon is Illuminated

Today's Extremes

State Highs State Lows

Community

WunderPhotos

Upload Photos

1,927,818 photos uploaded!

WunderBlog® & News

Nearby

Air Quality

  Air Quality AQ Index Pollutant
Not available.

Snow Depth

Station Depth Elevation

Earthquake Activity

City Distance Mag. Time & Date
Minimum magnitude displayed is 2.5.

Coastal Water Temperatures

Place Temperature

Stations

Nearby Weather Stations

Station Location Temp. Windchill Dew Point Humidity Wind Precip. Elev Updated Type
                   

Watches & Warnings

There are currently no watches in effect.